Time;durP1;ratioP1;P1;durP2;ratioP2;P2;SDS_P1;SDS_P2;PMS_P1;PMS_P2;Temp;Humidity;BMP_temperature;BMP_pressure;BME280_temperature;BME280_humidity;BME280_pressure;Samples;Min_cycle;Max_cycle;Signal;HPM_P1;HPM_P2
2022/10/21 00:01:35;;;;;;;36.58;20.92;;;10.80;99.90;;;;;;5134302;28;20130;-76
2022/10/21 00:04:02;;;;;;;38.67;21.90;;;10.80;99.90;;;;;;5134209;28;20122;-76
2022/10/21 00:06:28;;;;;;;35.15;21.85;;;10.80;99.90;;;;;;5136122;27;20046;-76
2022/10/21 00:08:54;;;;;;;35.22;20.70;;;10.80;99.90;;;;;;5138479;27;20043;-76
2022/10/21 00:11:19;;;;;;;35.15;21.67;;;10.80;99.90;;;;;;5138232;27;20068;-78
2022/10/21 00:13:45;;;;;;;40.67;18.83;;;10.80;99.90;;;;;;5137879;27;20402;-77
2022/10/21 00:16:13;;;;;;;33.13;19.65;;;10.80;99.90;;;;;;5138129;27;20084;-76
2022/10/21 00:18:41;;;;;;;30.33;19.15;;;10.80;99.90;;;;;;5138112;27;20043;-76
2022/10/21 00:21:10;;;;;;;35.17;20.23;;;10.80;99.90;;;;;;5138006;27;20043;-77
2022/10/21 00:23:35;;;;;;;35.10;21.33;;;10.70;99.90;;;;;;5137864;27;20059;-77
2022/10/21 00:26:02;;;;;;;44.67;20.17;;;10.70;99.90;;;;;;5137922;27;20134;-76
2022/10/21 00:28:28;;;;;;;32.35;20.08;;;10.90;99.90;;;;;;5137914;27;20076;-76
2022/10/21 00:30:54;;;;;;;29.65;17.55;;;10.70;99.90;;;;;;5137874;27;20407;-76
2022/10/21 00:33:19;;;;;;;28.02;18.40;;;10.70;99.90;;;;;;5137831;27;20043;-77
2022/10/21 00:35:53;;;;;;;29.60;18.70;;;10.70;99.90;;;;;;5137704;27;20039;-77
2022/10/21 00:38:19;;;;;;;30.27;19.58;;;10.70;99.90;;;;;;5137796;27;20085;-76
2022/10/21 00:40:44;;;;;;;29.75;18.00;;;10.70;99.90;;;;;;5137601;27;20478;-76
2022/10/21 00:43:11;;;;;;;31.83;19.23;;;10.70;99.90;;;;;;5137587;27;20035;-76
2022/10/21 00:45:37;;;;;;;29.52;18.60;;;11.00;99.90;;;;;;5137657;27;20043;-77
2022/10/21 00:48:23;;;;;;;30.00;18.27;;;10.60;99.90;;;;;;5137235;27;20443;-77
2022/10/21 00:50:57;;;;;;;35.33;19.77;;;11.10;99.90;;;;;;5137578;27;20068;-75
2022/10/21 00:53:23;;;;;;;35.55;20.38;;;10.60;99.90;;;;;;5137835;27;20047;-77
2022/10/21 00:55:53;;;;;;;35.63;18.38;;;10.60;99.90;;;;;;5137220;27;20502;-76
2022/10/21 00:58:23;;;;;;;32.47;18.98;;;10.50;99.90;;;;;;5137699;27;20391;-76
2022/10/21 01:00:53;;;;;;;30.52;19.45;;;10.60;99.90;;;;;;5136109;27;20077;-76
2022/10/21 01:03:19;;;;;;;32.03;19.90;;;10.60;99.90;;;;;;5137440;27;20043;-77
2022/10/21 01:05:46;;;;;;;31.38;19.58;;;10.50;99.90;;;;;;5137212;27;20084;-75
2022/10/21 01:08:11;;;;;;;30.92;18.52;;;10.50;99.90;;;;;;5137733;27;20400;-77
2022/10/21 01:10:37;;;;;;;30.20;17.70;;;10.50;99.90;;;;;;5137098;27;20039;-76
2022/10/21 01:13:41;;;;;;;31.80;18.15;;;10.50;99.90;;;;;;5137082;27;20043;-77
2022/10/21 01:16:19;;;;;;;33.38;19.15;;;10.50;99.90;;;;;;5137138;27;20431;-76
2022/10/21 01:19:03;;;;;;;32.00;18.58;;;10.40;99.90;;;;;;5136810;27;20035;-77
2022/10/21 01:21:40;;;;;;;30.45;18.67;;;10.40;99.90;;;;;;5136945;27;20092;-77
2022/10/21 01:24:11;;;;;;;30.58;17.40;;;10.40;99.90;;;;;;5136961;27;20462;-75
2022/10/21 01:27:13;;;;;;;30.02;17.33;;;10.40;99.90;;;;;;5136481;27;20039;-78
2022/10/21 01:30:08;;;;;;;30.50;17.83;;;10.40;99.90;;;;;;5136453;27;20395;-78
2022/10/21 01:33:06;;;;;;;34.70;17.83;;;10.40;99.90;;;;;;5136715;27;20066;-77
2022/10/21 01:35:53;;;;;;;29.97;17.47;;;10.40;99.90;;;;;;5136998;27;20089;-77
2022/10/21 01:38:39;;;;;;;29.57;16.60;;;10.40;99.90;;;;;;5136553;27;20345;-77
2022/10/21 01:41:23;;;;;;;35.25;17.88;;;10.70;99.90;;;;;;5094533;27;20339;-77
2022/10/21 01:43:59;;;;;;;46.03;22.02;;;10.40;99.90;;;;;;5136823;27;20543;-77
2022/10/21 01:46:38;;;;;;;35.70;16.70;;;10.50;99.90;;;;;;5136428;27;20083;-76
2022/10/21 01:49:14;;;;;;;41.80;24.42;;;10.50;99.90;;;;;;5136554;27;20062;-76
2022/10/21 01:51:41;;;;;;;39.55;21.17;;;10.50;99.90;;;;;;5136363;27;20039;-77
2022/10/21 01:54:13;;;;;;;41.50;20.75;;;10.50;99.90;;;;;;5136265;27;20078;-77
2022/10/21 01:56:40;;;;;;;28.83;16.92;;;10.60;99.90;;;;;;5136634;27;20432;-77
2022/10/21 01:59:09;;;;;;;28.08;15.68;;;10.60;99.90;;;;;;5135864;27;20047;-76
2022/10/21 02:01:36;;;;;;;40.63;18.13;;;10.70;99.90;;;;;;5136057;27;20141;-78
2022/10/21 02:04:04;;;;;;;37.10;15.98;;;10.80;99.90;;;;;;5136050;27;20043;-77
2022/10/21 02:06:30;;;;;;;37.88;20.75;;;10.80;99.90;;;;;;5135962;27;20050;-77
2022/10/21 02:08:55;;;;;;;34.60;19.42;;;10.90;99.90;;;;;;5135958;27;20047;-76
2022/10/21 02:11:21;;;;;;;38.45;20.23;;;10.90;99.90;;;;;;5135949;27;20041;-77
2022/10/21 02:14:01;;;;;;;36.55;19.83;;;10.90;99.90;;;;;;5136128;27;20376;-75
2022/10/21 02:16:35;;;;;;;38.58;20.63;;;11.00;99.90;;;;;;5135894;27;20082;-77
2022/10/21 02:19:01;;;;;;;37.42;20.92;;;11.00;99.90;;;;;;5135722;27;20051;-76
2022/10/21 02:21:30;;;;;;;39.20;19.42;;;11.00;99.90;;;;;;5135929;27;20126;-78
2022/10/21 02:24:18;;;;;;;35.15;19.42;;;11.10;99.90;;;;;;5135364;27;20501;-76
2022/10/21 02:26:43;;;;;;;;;;;11.10;99.90;;;;;;5135983;27;20048;-78
2022/10/21 02:29:11;;;;;;;41.47;20.85;;;11.10;99.90;;;;;;5134792;27;19924;-76
2022/10/21 02:31:51;;;;;;;39.55;21.17;;;11.10;99.90;;;;;;5135501;27;20054;-76
2022/10/21 02:34:29;;;;;;;37.85;21.25;;;11.20;99.90;;;;;;5135706;27;20043;-78
2022/10/21 02:37:19;;;;;;;35.15;20.05;;;11.20;99.90;;;;;;5135478;27;20130;-77
2022/10/21 02:40:08;;;;;;;38.05;21.30;;;11.20;99.90;;;;;;5135383;27;20455;-77
2022/10/21 02:42:42;;;;;;;41.67;21.52;;;11.30;99.90;;;;;;5135788;27;20070;-77
2022/10/21 02:45:09;;;;;;;124.18;112.15;;;11.30;99.90;;;;;;5135558;27;20085;-78
2022/10/21 02:47:39;;;;;;;36.28;21.58;;;11.30;99.90;;;;;;5135251;27;20039;-77
2022/10/21 02:50:05;;;;;;;39.42;21.27;;;11.30;99.90;;;;;;5135211;27;20352;-76
2022/10/21 02:52:30;;;;;;;40.83;22.33;;;11.40;99.90;;;;;;5135076;27;20144;-77
2022/10/21 02:54:56;;;;;;;39.22;19.48;;;11.40;99.90;;;;;;5134981;27;20138;-76
2022/10/21 02:57:21;;;;;;;44.33;19.80;;;11.40;99.90;;;;;;5133894;27;20088;-77
2022/10/21 02:59:47;;;;;;;41.20;21.45;;;11.40;99.90;;;;;;5135052;27;20043;-77
2022/10/21 03:02:12;;;;;;;40.50;22.10;;;11.50;99.90;;;;;;5135259;27;20043;-76
2022/10/21 03:04:38;;;;;;;46.28;20.85;;;11.50;99.90;;;;;;5134882;27;20421;-77
2022/10/21 03:07:04;;;;;;;38.58;20.35;;;11.90;99.90;;;;;;5134558;27;20051;-77
2022/10/21 03:09:30;;;;;;;40.57;22.13;;;11.50;99.90;;;;;;5135059;27;20367;-76
2022/10/21 03:11:55;;;;;;;39.80;20.40;;;11.70;99.90;;;;;;5134874;27;20042;-77
2022/10/21 03:14:21;;;;;;;45.25;23.05;;;11.90;99.90;;;;;;5134935;27;20125;-77
2022/10/21 03:16:46;;;;;;;40.85;20.30;;;11.70;99.90;;;;;;5134817;27;20047;-77
2022/10/21 03:19:12;;;;;;;36.63;19.85;;;11.60;99.90;;;;;;5134812;27;20035;-76
2022/10/21 03:21:38;;;;;;;38.95;20.17;;;11.60;99.90;;;;;;5134829;27;20483;-76
2022/10/21 03:24:03;;;;;;;43.47;19.92;;;11.50;99.90;;;;;;5134752;27;20059;-77
2022/10/21 03:26:29;;;;;;;37.47;20.35;;;11.50;99.90;;;;;;5134765;27;20454;-76
2022/10/21 03:28:54;;;;;;;40.42;21.00;;;11.50;99.90;;;;;;5134684;28;20092;-77
2022/10/21 03:31:20;;;;;;;35.42;18.67;;;11.40;99.90;;;;;;5134927;28;20133;-75
2022/10/21 03:33:46;;;;;;;40.95;19.35;;;11.50;99.90;;;;;;5134719;28;20043;-76
2022/10/21 03:36:11;;;;;;;44.50;20.17;;;11.40;99.90;;;;;;5134620;28;20043;-76
2022/10/21 03:38:37;;;;;;;52.63;20.42;;;11.40;99.90;;;;;;5134310;28;20475;-77
2022/10/21 03:41:02;;;;;;;41.63;18.80;;;11.30;99.90;;;;;;5137512;27;20043;-76
2022/10/21 03:43:28;;;;;;;111.18;23.45;;;11.30;99.90;;;;;;5139084;27;20040;-77
2022/10/21 03:45:53;;;;;;;52.75;19.50;;;11.30;99.90;;;;;;5138680;27;20035;-75
2022/10/21 03:48:19;;;;;;;55.85;19.10;;;11.30;99.90;;;;;;5138756;27;20043;-76
2022/10/21 03:50:45;;;;;;;37.55;17.63;;;11.20;99.90;;;;;;5138692;27;20075;-76
2022/10/21 03:53:10;;;;;;;51.17;18.90;;;11.20;99.90;;;;;;5138652;27;20051;-76
2022/10/21 03:55:36;;;;;;;32.80;18.88;;;11.10;99.90;;;;;;5138625;27;20493;-76
2022/10/21 03:58:01;;;;;;;43.75;18.63;;;11.10;99.90;;;;;;5138948;27;20098;-76
2022/10/21 04:00:27;;;;;;;30.95;17.60;;;11.10;99.90;;;;;;5138536;27;20036;-76
2022/10/21 04:02:53;;;;;;;32.35;18.10;;;11.10;99.90;;;;;;5138514;27;20046;-77
2022/10/21 04:05:18;;;;;;;37.97;17.80;;;11.10;99.90;;;;;;5137248;27;20039;-77
2022/10/21 04:07:44;;;;;;;29.48;17.58;;;11.10;99.90;;;;;;5138225;27;20039;-76
2022/10/21 04:10:10;;;;;;;30.98;17.65;;;11.10;99.90;;;;;;5138986;27;20087;-77
2022/10/21 04:12:36;;;;;;;33.42;17.77;;;11.10;99.90;;;;;;5138256;27;20501;-76
2022/10/21 04:15:02;;;;;;;31.42;17.75;;;11.00;99.90;;;;;;5138288;27;20128;-77
2022/10/21 04:17:28;;;;;;;29.40;17.40;;;11.00;99.90;;;;;;5138273;27;20043;-76
2022/10/21 04:19:53;;;;;;;39.30;18.83;;;11.00;99.90;;;;;;5138031;27;20103;-77
2022/10/21 04:22:19;;;;;;;35.63;18.75;;;11.00;99.90;;;;;;5137897;27;20066;-77
2022/10/21 04:24:44;;;;;;;32.20;18.48;;;11.00;99.90;;;;;;5137331;27;20047;-76
2022/10/21 04:27:10;;;;;;;39.83;18.60;;;11.00;99.90;;;;;;5137847;27;20054;-76
2022/10/21 04:29:36;;;;;;;30.88;18.00;;;11.00;99.90;;;;;;5137504;27;20047;-76
2022/10/21 04:32:01;;;;;;;27.95;17.90;;;10.90;99.90;;;;;;5137604;27;20054;-76
2022/10/21 04:34:27;;;;;;;31.17;18.55;;;10.90;99.90;;;;;;5137803;27;20371;-77
2022/10/21 04:36:52;;;;;;;46.75;19.33;;;10.90;99.90;;;;;;5137750;27;20095;-76
2022/10/21 04:39:18;;;;;;;37.72;19.95;;;10.90;99.90;;;;;;5137809;27;20046;-77
2022/10/21 04:41:44;;;;;;;35.50;18.30;;;10.90;99.90;;;;;;5137764;27;20042;-77
2022/10/21 04:44:10;;;;;;;31.88;18.70;;;10.90;99.90;;;;;;5137652;27;20047;-76
2022/10/21 04:46:36;;;;;;;32.28;17.80;;;10.80;99.90;;;;;;5137874;27;20061;-76
2022/10/21 04:49:01;;;;;;;31.45;17.00;;;10.80;99.90;;;;;;5137627;27;20095;-78
2022/10/21 04:51:27;;;;;;;32.78;18.58;;;10.80;99.90;;;;;;5136836;27;20049;-77
2022/10/21 04:53:52;;;;;;;28.60;17.67;;;10.80;99.90;;;;;;5137506;27;20497;-76
2022/10/21 04:56:18;;;;;;;40.15;18.85;;;10.90;99.90;;;;;;5137507;27;20386;-76
2022/10/21 04:58:43;;;;;;;30.23;17.20;;;10.70;99.90;;;;;;5137425;27;20092;-77
2022/10/21 05:01:09;;;;;;;32.03;17.20;;;10.80;99.90;;;;;;5136373;27;20043;-76
2022/10/21 05:03:35;;;;;;;29.90;17.85;;;10.70;99.90;;;;;;5137236;27;20043;-77
2022/10/21 05:06:00;;;;;;;30.58;17.23;;;11.20;99.90;;;;;;5137728;27;20110;-75
2022/10/21 05:08:26;;;;;;;33.92;17.30;;;10.70;99.90;;;;;;5137173;27;20043;-79
2022/10/21 05:10:59;;;;;;;28.75;18.48;;;10.70;99.90;;;;;;5137143;27;20070;-75
2022/10/21 05:13:26;;;;;;;37.15;18.40;;;10.70;99.90;;;;;;5137162;27;20058;-76
2022/10/21 05:15:51;;;;;;;33.58;17.48;;;10.70;99.90;;;;;;5137140;27;20047;-77
2022/10/21 05:18:17;;;;;;;34.17;18.02;;;10.70;99.90;;;;;;5137221;27;20376;-75
2022/10/21 05:20:48;;;;;;;31.33;17.05;;;10.60;99.90;;;;;;5136971;27;20042;-75
2022/10/21 05:23:13;;;;;;;40.70;18.55;;;10.70;99.90;;;;;;5137185;27;20091;-75
2022/10/21 05:25:39;;;;;;;37.45;17.92;;;10.70;99.90;;;;;;5136901;27;20090;-75
2022/10/21 05:28:05;;;;;;;41.10;18.73;;;10.70;99.90;;;;;;5136909;27;20043;-74
2022/10/21 05:30:30;;;;;;;37.08;17.88;;;10.70;99.90;;;;;;5136796;27;20045;-74
2022/10/21 05:32:56;;;;;;;29.23;17.00;;;10.60;99.90;;;;;;5136731;27;20041;-75
2022/10/21 05:35:21;;;;;;;36.17;18.13;;;10.60;99.90;;;;;;5136714;27;20035;-75
2022/10/21 05:37:47;;;;;;;30.73;16.15;;;10.60;99.90;;;;;;5136677;27;20138;-76
2022/10/21 05:40:12;;;;;;;27.85;16.23;;;10.60;99.90;;;;;;5137026;27;20084;-75
2022/10/21 05:42:38;;;;;;;37.00;18.70;;;10.80;99.90;;;;;;5136563;27;20490;-75
2022/10/21 05:45:04;;;;;;;30.27;17.63;;;10.60;99.90;;;;;;5136464;27;20476;-75
2022/10/21 05:47:30;;;;;;;36.70;18.42;;;10.60;99.90;;;;;;5136229;27;20112;-75
2022/10/21 05:49:55;;;;;;;45.33;17.88;;;10.60;99.90;;;;;;5136370;27;20475;-75
2022/10/21 05:52:21;;;;;;;37.95;18.50;;;10.60;99.90;;;;;;5136296;27;20039;-76
2022/10/21 05:54:47;;;;;;;37.63;18.15;;;10.50;99.90;;;;;;5136272;27;20050;-75
2022/10/21 05:57:12;;;;;;;41.95;18.63;;;10.60;99.90;;;;;;5136199;27;20042;-74
2022/10/21 05:59:38;;;;;;;36.20;18.15;;;10.50;99.90;;;;;;5136251;27;20031;-75
2022/10/21 06:02:04;;;;;;;40.58;18.83;;;10.60;99.90;;;;;;5136262;27;20047;-75
2022/10/21 06:04:29;;;;;;;41.33;19.27;;;10.60;99.90;;;;;;5135127;27;20048;-75
2022/10/21 06:06:55;;;;;;;34.17;18.05;;;10.50;99.90;;;;;;5135967;27;20471;-75
2022/10/21 06:09:20;;;;;;;37.33;18.20;;;10.60;99.90;;;;;;5134821;27;20394;-75
2022/10/21 06:11:46;;;;;;;39.65;18.33;;;10.50;99.90;;;;;;5135950;27;20107;-74
2022/10/21 06:14:12;;;;;;;38.05;18.48;;;10.60;99.90;;;;;;5135653;27;20051;-74
2022/10/21 06:16:38;;;;;;;38.67;19.63;;;10.50;99.90;;;;;;5135839;27;20058;-74
2022/10/21 06:19:03;;;;;;;36.83;17.85;;;10.60;99.90;;;;;;5135531;27;20047;-75
2022/10/21 06:21:29;;;;;;;37.25;18.73;;;10.50;99.90;;;;;;5135780;27;20104;-77
2022/10/21 06:23:55;;;;;;;35.20;17.73;;;10.60;99.90;;;;;;5135331;27;20047;-76
2022/10/21 06:26:21;;;;;;;47.55;19.85;;;10.70;99.90;;;;;;5136048;27;20074;-76
2022/10/21 06:28:49;;;;;;;52.65;21.13;;;10.60;99.90;;;;;;5135737;27;20047;-77
2022/10/21 06:31:17;;;;;;;43.30;18.73;;;10.70;99.90;;;;;;5135042;27;20047;-77
2022/10/21 06:33:43;;;;;;;40.53;19.73;;;10.70;99.90;;;;;;5135446;27;20082;-78
2022/10/21 06:36:09;;;;;;;36.72;19.20;;;10.90;99.90;;;;;;5135528;27;20088;-76
2022/10/21 06:38:35;;;;;;;36.13;17.50;;;10.70;99.90;;;;;;5135433;27;20050;-76
2022/10/21 06:41:07;;;;;;;39.88;20.02;;;10.80;99.90;;;;;;5135372;27;20044;-75
2022/10/21 06:43:32;;;;;;;35.75;18.58;;;10.70;99.90;;;;;;5135665;27;20095;-77
2022/10/21 06:46:03;;;;;;;41.47;20.23;;;10.70;99.90;;;;;;5135357;27;20542;-75
2022/10/21 06:48:29;;;;;;;44.20;20.27;;;10.70;99.90;;;;;;5135304;27;20050;-76
2022/10/21 06:51:09;;;;;;;40.53;18.80;;;10.70;99.90;;;;;;5134976;27;20049;-76
2022/10/21 06:53:36;;;;;;;38.33;18.80;;;10.70;99.90;;;;;;5135239;27;20047;-75
2022/10/21 06:56:06;;;;;;;45.13;20.67;;;10.80;99.90;;;;;;5134891;27;20070;-76
2022/10/21 06:58:35;;;;;;;40.50;19.92;;;10.80;99.90;;;;;;5134909;27;20104;-77
2022/10/21 07:01:08;;;;;;;32.10;19.00;;;10.80;99.90;;;;;;5133863;27;20122;-76
2022/10/21 07:03:34;;;;;;;39.22;19.95;;;10.90;99.90;;;;;;5137374;27;20135;-75
2022/10/21 07:06:00;;;;;;;38.50;18.88;;;10.90;99.90;;;;;;5135020;27;20538;-76
2022/10/21 07:08:26;;;;;;;41.17;19.55;;;11.00;99.90;;;;;;5135296;27;20043;-76
2022/10/21 07:10:52;;;;;;;;;;;11.00;99.90;;;;;;5141597;27;20397;-76
2022/10/21 07:13:18;;;;;;;35.15;18.88;;;11.00;99.90;;;;;;5155681;27;19919;-76
2022/10/21 07:15:43;;;;;;;34.40;18.45;;;11.10;99.90;;;;;;5155253;27;20043;-76
2022/10/21 07:18:09;;;;;;;31.70;18.35;;;11.10;99.90;;;;;;5155495;27;20546;-76
2022/10/21 07:20:34;;;;;;;30.83;18.95;;;11.10;99.90;;;;;;5155476;27;20386;-76
2022/10/21 07:23:00;;;;;;;38.33;19.10;;;11.20;99.90;;;;;;5148933;27;20054;-76
2022/10/21 07:25:26;;;;;;;31.17;18.65;;;11.20;99.90;;;;;;5153774;27;20076;-76
2022/10/21 07:27:51;;;;;;;36.08;18.80;;;11.30;99.90;;;;;;5155152;27;20054;-76
2022/10/21 07:30:17;;;;;;;40.33;20.67;;;11.40;99.90;;;;;;5154986;27;20042;-76
2022/10/21 07:32:42;;;;;;;38.17;20.35;;;11.50;99.90;;;;;;5154746;27;20038;-76
2022/10/21 07:35:08;;;;;;;31.52;19.27;;;11.60;99.90;;;;;;5155137;27;20081;-76
2022/10/21 07:37:34;;;;;;;35.20;19.83;;;11.70;99.90;;;;;;5154891;27;20050;-76
2022/10/21 07:39:59;;;;;;;34.78;19.55;;;12.10;99.90;;;;;;5155058;27;20065;-76
2022/10/21 07:42:27;;;;;;;41.30;20.23;;;11.90;99.90;;;;;;5155002;27;20042;-76
2022/10/21 07:44:58;;;;;;;33.90;21.70;;;12.00;99.90;;;;;;5154953;27;20039;-75
2022/10/21 07:47:24;;;;;;;32.80;20.08;;;12.10;99.90;;;;;;5154586;27;20046;-77
2022/10/21 07:49:50;;;;;;;33.75;19.83;;;12.10;99.90;;;;;;5136681;27;20057;-79
2022/10/21 07:52:16;;;;;;;31.55;19.30;;;12.20;99.90;;;;;;5154965;27;20035;-78
2022/10/21 07:54:41;;;;;;;32.72;19.40;;;12.30;99.90;;;;;;5154885;27;20084;-77
2022/10/21 07:57:07;;;;;;;37.40;18.60;;;12.60;99.90;;;;;;5154199;27;20053;-72
2022/10/21 07:59:33;;;;;;;31.13;17.85;;;12.30;99.90;;;;;;5154615;27;20474;-76
2022/10/21 08:01:58;;;;;;;31.77;19.75;;;12.40;99.90;;;;;;5154682;27;20076;-74
2022/10/21 08:04:28;;;;;;;31.73;19.45;;;12.50;99.90;;;;;;5154818;27;20078;-75
2022/10/21 08:06:54;;;;;;;32.13;19.38;;;12.60;99.90;;;;;;5154764;27;20047;-76
2022/10/21 08:09:21;;;;;;;29.10;18.57;;;12.70;99.90;;;;;;5154802;27;20050;-75
2022/10/21 08:11:46;;;;;;;31.58;18.15;;;12.80;99.90;;;;;;5154871;27;20127;-75
2022/10/21 08:14:13;;;;;;;26.60;17.15;;;12.90;99.90;;;;;;5154811;27;20500;-78
2022/10/21 08:16:39;;;;;;;27.45;18.23;;;12.90;99.90;;;;;;5154315;27;20049;-75
2022/10/21 08:19:06;;;;;;;29.40;18.08;;;13.00;99.90;;;;;;5154808;27;20039;-79
2022/10/21 08:21:31;;;;;;;;;;;13.10;99.90;;;;;;5155035;27;20122;-76
2022/10/21 08:23:59;;;;;;;23.48;16.35;;;13.10;99.90;;;;;;5149557;27;20278;-77
2022/10/21 08:26:25;;;;;;;31.67;17.20;;;13.20;99.90;;;;;;5144894;27;20046;-77
2022/10/21 08:28:51;;;;;;;29.05;17.20;;;13.40;99.90;;;;;;5146697;27;20462;-76
2022/10/21 08:31:19;;;;;;;27.85;17.67;;;13.40;99.90;;;;;;5129578;27;20042;-76
2022/10/21 08:33:45;;;;;;;27.23;17.02;;;13.50;99.90;;;;;;5151443;27;20095;-83
2022/10/21 08:36:30;;;;;;;25.65;17.70;;;13.60;99.90;;;;;;5158267;27;20099;-79
2022/10/21 08:38:57;;;;;;;27.30;16.75;;;13.60;99.90;;;;;;5139226;27;20046;-76
2022/10/21 08:41:39;;;;;;;25.45;15.80;;;13.70;99.90;;;;;;5137597;27;20035;-76
2022/10/21 08:44:39;;;;;;;27.27;15.27;;;13.70;99.90;;;;;;5137563;27;20447;-76
2022/10/21 08:47:15;;;;;;;24.05;16.13;;;13.80;99.90;;;;;;5137543;27;20050;-77
2022/10/21 08:50:04;;;;;;;26.45;15.93;;;13.80;99.90;;;;;;5137014;27;20053;-77
2022/10/21 08:52:47;;;;;;;25.67;15.98;;;13.80;99.90;;;;;;5137377;27;20039;-76
2022/10/21 08:55:20;;;;;;;24.65;15.13;;;13.90;99.90;;;;;;5137377;27;20031;-82
2022/10/21 08:57:52;;;;;;;24.17;15.13;;;13.90;99.90;;;;;;5137120;27;20128;-81
2022/10/21 09:00:24;;;;;;;23.58;15.20;;;13.90;99.90;;;;;;5137009;27;20104;-82
2022/10/21 09:03:09;;;;;;;25.35;15.13;;;14.10;99.90;;;;;;5137124;27;20062;-80
2022/10/21 09:05:46;;;;;;;25.58;13.13;;;14.00;99.90;;;;;;5136906;27;20042;-77
2022/10/21 09:08:17;;;;;;;22.95;13.82;;;14.10;99.90;;;;;;5137165;27;20440;-78
2022/10/21 09:10:59;;;;;;;25.67;15.27;;;14.10;99.90;;;;;;5136974;27;20390;-78
2022/10/21 09:13:47;;;;;;;22.90;14.50;;;14.20;99.90;;;;;;5136960;27;20047;-76
2022/10/21 09:16:21;;;;;;;18.48;13.32;;;14.20;99.90;;;;;;5137471;27;20043;-77
2022/10/21 09:19:45;;;;;;;32.35;14.88;;;14.30;99.90;;;;;;5136900;27;20151;-76
2022/10/21 09:22:40;;;;;;;21.80;12.90;;;14.30;99.90;;;;;;5102079;27;20066;-76
2022/10/21 09:25:25;;;;;;;20.67;13.73;;;14.50;99.90;;;;;;5136282;27;20051;-76
2022/10/21 09:27:51;;;;;;;20.25;13.25;;;14.60;99.90;;;;;;5136810;27;20043;-76
2022/10/21 09:30:21;;;;;;;18.30;13.00;;;14.70;99.90;;;;;;5136725;27;20039;-76
2022/10/21 09:32:49;;;;;;;25.15;13.65;;;14.80;99.90;;;;;;5136596;27;20281;-77
2022/10/21 09:35:33;;;;;;;18.27;12.73;;;14.90;99.90;;;;;;5136601;27;20050;-77
2022/10/21 09:38:21;;;;;;;19.10;12.60;;;15.00;99.90;;;;;;5135885;27;20131;-77
2022/10/21 09:40:50;;;;;;;17.97;12.57;;;15.00;99.90;;;;;;5136419;27;20433;-80
2022/10/21 09:43:19;;;;;;;16.17;11.57;;;15.00;99.90;;;;;;5136306;27;20043;-78
2022/10/21 09:45:45;;;;;;;17.70;11.13;;;15.00;99.90;;;;;;5135089;27;20144;-77
2022/10/21 09:48:17;;;;;;;20.05;12.45;;;15.00;99.90;;;;;;5136138;27;20088;-82
2022/10/21 09:50:45;;;;;;;20.13;12.05;;;15.00;99.90;;;;;;5135811;27;20054;-76
2022/10/21 09:53:21;;;;;;;18.35;11.77;;;15.00;99.90;;;;;;5135944;27;20054;-76
2022/10/21 09:55:51;;;;;;;19.50;11.52;;;15.00;99.90;;;;;;5136123;27;20039;-75
2022/10/21 09:58:44;;;;;;;20.58;11.55;;;15.00;99.90;;;;;;5135942;27;20046;-76
2022/10/21 10:01:21;;;;;;;19.83;11.95;;;15.00;99.90;;;;;;5132483;27;20146;-79
2022/10/21 10:03:50;;;;;;;19.25;11.60;;;15.00;99.90;;;;;;5136080;27;20051;-76
2022/10/21 10:06:35;;;;;;;19.33;11.57;;;15.10;99.90;;;;;;5135852;27;20112;-76
2022/10/21 10:09:07;;;;;;;19.35;11.73;;;15.10;99.90;;;;;;5135932;27;20043;-76
2022/10/21 10:11:33;;;;;;;20.23;11.70;;;15.10;99.90;;;;;;5135730;27;20046;-77
2022/10/21 10:14:23;;;;;;;18.13;11.30;;;15.10;99.90;;;;;;5135777;27;20039;-76
2022/10/21 10:16:48;;;;;;;15.95;11.68;;;15.20;99.90;;;;;;5135544;27;20082;-77
2022/10/21 10:19:17;;;;;;;19.37;11.80;;;15.20;99.90;;;;;;5135769;27;20086;-79
2022/10/21 10:21:44;;;;;;;20.90;11.43;;;15.30;99.90;;;;;;5145147;27;20091;-75
2022/10/21 10:24:19;;;;;;;23.20;11.90;;;15.30;99.90;;;;;;5136239;27;20127;-75
2022/10/21 10:26:46;;;;;;;17.52;11.50;;;15.40;99.90;;;;;;5135479;27;20049;-76
2022/10/21 10:29:14;;;;;;;;;;;15.40;99.90;;;;;;5135898;27;20096;-76
2022/10/21 10:31:45;;;;;;;20.10;11.60;;;15.40;99.90;;;;;;5135441;27;19919;-75
2022/10/21 10:34:20;;;;;;;19.67;11.52;;;15.50;99.90;;;;;;5135400;27;20054;-74
2022/10/21 10:36:47;;;;;;;18.75;12.02;;;15.50;99.90;;;;;;5135361;27;20070;-75
2022/10/21 10:39:22;;;;;;;19.20;11.52;;;15.50;99.90;;;;;;5135046;27;20635;-74
2022/10/21 10:41:50;;;;;;;15.18;11.07;;;15.60;99.90;;;;;;5135140;27;20123;-74
2022/10/21 10:44:31;;;;;;;18.23;11.85;;;15.60;99.90;;;;;;5134833;27;20510;-75
2022/10/21 10:47:00;;;;;;;19.92;11.35;;;15.60;99.90;;;;;;5134593;27;20546;-76
2022/10/21 10:49:32;;;;;;;19.02;10.90;;;15.70;99.90;;;;;;5133263;27;20046;-76
2022/10/21 10:52:06;;;;;;;15.82;11.57;;;15.70;99.90;;;;;;5117000;27;20543;-75
2022/10/21 10:54:32;;;;;;;19.17;12.25;;;15.70;99.90;;;;;;5135092;27;20043;-77
2022/10/21 10:57:22;;;;;;;19.57;12.50;;;15.70;99.90;;;;;;5133926;27;20043;-76
2022/10/21 11:00:15;;;;;;;16.35;10.63;;;15.80;99.90;;;;;;5133532;27;20059;-75
2022/10/21 11:02:59;;;;;;;20.13;11.20;;;15.80;99.90;;;;;;5135021;27;20047;-77
2022/10/21 11:05:35;;;;;;;13.73;9.98;;;15.90;99.90;;;;;;5133539;27;20055;-76
2022/10/21 11:08:23;;;;;;;18.30;11.10;;;15.90;99.90;;;;;;5133309;27;20046;-74
2022/10/21 11:10:55;;;;;;;15.30;10.40;;;16.00;99.90;;;;;;5134796;27;20039;-74
2022/10/21 11:13:22;;;;;;;15.85;11.23;;;16.00;99.90;;;;;;5135078;27;20043;-75
2022/10/21 11:16:13;;;;;;;16.63;10.32;;;16.00;99.90;;;;;;5134018;27;20043;-75
2022/10/21 11:18:57;;;;;;;18.75;10.32;;;16.00;99.90;;;;;;5134683;27;20039;-74
2022/10/21 11:21:47;;;;;;;18.95;10.77;;;16.10;99.90;;;;;;5134692;27;20083;-74
2022/10/21 11:24:15;;;;;;;17.35;10.90;;;16.10;99.90;;;;;;5134436;27;20051;-75
2022/10/21 11:26:53;;;;;;;14.70;10.48;;;16.20;99.90;;;;;;5134426;27;20062;-74
2022/10/21 11:29:42;;;;;;;19.45;10.90;;;16.20;99.90;;;;;;5133429;27;20452;-76
2022/10/21 11:32:21;;;;;;;16.00;11.13;;;16.20;99.90;;;;;;5134256;28;20450;-74
2022/10/21 11:35:17;;;;;;;16.65;10.02;;;16.20;99.90;;;;;;5151006;27;20482;-76
2022/10/21 11:37:49;;;;;;;15.88;9.23;;;16.20;99.90;;;;;;5150797;27;20492;-75
2022/10/21 11:40:45;;;;;;;11.15;8.57;;;16.20;99.90;;;;;;5154411;27;20043;-76
2022/10/21 11:43:48;;;;;;;12.70;7.75;;;16.20;99.90;;;;;;5154056;27;20092;-73
2022/10/21 11:46:19;;;;;;;14.52;7.70;;;16.30;99.90;;;;;;5148106;27;20420;-76
2022/10/21 11:49:27;;;;;;;12.70;7.57;;;16.30;99.90;;;;;;5141566;27;20113;-76
2022/10/21 11:52:10;;;;;;;11.60;7.55;;;16.30;99.90;;;;;;5154445;27;20405;-76
2022/10/21 11:55:00;;;;;;;11.30;8.38;;;16.40;99.90;;;;;;5155069;27;20130;-76
2022/10/21 11:58:01;;;;;;;14.93;8.02;;;16.40;99.90;;;;;;5153722;27;20046;-76
2022/10/21 12:00:37;;;;;;;14.15;7.95;;;16.40;99.90;;;;;;5110822;27;20371;-79
2022/10/21 12:03:41;;;;;;;13.05;7.90;;;16.40;99.90;;;;;;5159213;27;20129;-78
2022/10/21 12:06:38;;;;;;;10.95;7.65;;;16.40;99.90;;;;;;5137577;27;20051;-78
2022/10/21 12:09:19;;;;;;;13.88;7.05;;;16.50;99.90;;;;;;5138241;27;20096;-75
2022/10/21 12:11:54;;;;;;;15.27;8.18;;;16.50;99.90;;;;;;5138412;27;20047;-76
2022/10/21 12:14:28;;;;;;;10.07;6.63;;;16.50;99.90;;;;;;5137791;27;20410;-76
2022/10/21 12:16:57;;;;;;;15.52;7.72;;;16.50;99.90;;;;;;5137981;27;20478;-77
2022/10/21 12:19:24;;;;;;;12.88;7.25;;;16.40;99.90;;;;;;5137999;27;20035;-80
2022/10/21 12:21:50;;;;;;;;;;;16.40;99.90;;;;;;5154030;27;20042;-76
2022/10/21 12:24:48;;;;;;;10.50;6.82;;;16.50;99.90;;;;;;5158465;27;20007;-77
2022/10/21 12:27:28;;;;;;;12.68;6.60;;;16.50;99.90;;;;;;5158447;27;20059;-77
2022/10/21 12:30:13;;;;;;;14.13;6.75;;;16.50;99.90;;;;;;5158519;27;20490;-76
2022/10/21 12:33:19;;;;;;;10.70;6.93;;;16.60;99.90;;;;;;5158393;27;20117;-75
2022/10/21 12:35:51;;;;;;;12.57;7.00;;;16.60;99.90;;;;;;5158284;27;20055;-75
2022/10/21 12:38:44;;;;;;;11.98;7.03;;;16.70;99.90;;;;;;5158059;27;20039;-75
2022/10/21 12:41:34;;;;;;;12.40;6.93;;;16.70;99.90;;;;;;5158375;27;20057;-75
2022/10/21 12:43:59;;;;;;;15.30;7.00;;;16.70;99.90;;;;;;5158247;27;20046;-75
2022/10/21 12:46:43;;;;;;;11.30;7.53;;;16.80;99.90;;;;;;5158205;27;20047;-76
2022/10/21 12:49:09;;;;;;;11.52;6.93;;;16.80;99.90;;;;;;5149468;27;20045;-78
2022/10/21 12:51:35;;;;;;;11.37;6.60;;;16.90;99.90;;;;;;5146282;27;20118;-76